Time;durP1;ratioP1;P1;durP2;ratioP2;P2;SDS_P1;SDS_P2;PMS_P1;PMS_P2;Temp;Humidity;BMP_temperature;BMP_pressure;BME280_temperature;BME280_humidity;BME280_pressure;Samples;Min_cycle;Max_cycle;Signal;HPM_P1;HPM_P2
2022/07/02 00:01:23;;;;;;;1.07;0.10;;;;;;;18.68;70.30;101193.05;1765928;81;20870;-84
2022/07/02 00:03:52;;;;;;;1.07;0.30;;;;;;;18.65;70.30;101209.34;1759961;81;20902;-84
2022/07/02 00:06:21;;;;;;;1.37;0.10;;;;;;;18.51;70.25;101213.78;1752273;80;21459;-84
2022/07/02 00:08:47;;;;;;;1.55;0.30;;;;;;;18.40;70.35;101218.58;1754359;81;20866;-84
2022/07/02 00:11:18;;;;;;;0.55;0.20;;;;;;;18.34;70.33;101219.67;1731439;81;21444;-84
2022/07/02 00:13:43;;;;;;;0.98;0.40;;;;;;;18.26;70.31;101213.02;1748683;81;21438;-85
2022/07/02 00:16:11;;;;;;;1.32;0.30;;;;;;;18.23;70.42;101221.84;1762374;81;21411;-85
2022/07/02 00:18:44;;;;;;;3.98;0.20;;;;;;;18.16;70.37;101236.95;1765701;80;21395;-85
2022/07/02 00:21:11;;;;;;;1.70;0.10;;;;;;;18.14;70.41;101237.47;1763534;80;21370;-85
2022/07/02 00:23:37;;;;;;;2.75;0.33;;;;;;;18.11;70.37;101226.27;1744536;80;20945;-85
2022/07/02 00:26:14;;;;;;;2.92;0.30;;;;;;;18.07;70.38;101229.45;1765762;81;21383;-85
2022/07/02 00:28:42;;;;;;;1.22;0.20;;;;;;;18.04;70.44;101243.10;1734561;81;20957;-85
2022/07/02 00:31:28;;;;;;;1.30;0.30;;;;;;;17.98;70.48;101242.02;1752336;81;21375;-85
2022/07/02 00:33:56;;;;;;;0.62;0.47;;;;;;;17.89;70.55;101250.20;1765843;81;21466;-85
2022/07/02 00:36:25;;;;;;;1.55;0.20;;;;;;;17.84;70.54;101248.60;1765765;81;20945;-85
2022/07/02 00:38:51;;;;;;;0.47;0.25;;;;;;;17.82;70.58;101252.18;1760023;81;20910;-85
2022/07/02 00:41:18;;;;;;;4.80;0.30;;;;;;;17.78;70.54;101246.20;1758500;81;20890;-85
2022/07/02 00:43:46;;;;;;;0.75;0.37;;;;;;;17.75;70.57;101242.84;1752247;81;21426;-85
2022/07/02 00:46:14;;;;;;;0.68;0.30;;;;;;;17.76;70.87;101243.24;1765800;81;21394;-85
2022/07/02 00:48:42;;;;;;;1.70;0.20;;;;;;;17.72;70.65;101249.48;1763345;80;21215;-85
2022/07/02 00:51:09;;;;;;;0.33;0.20;;;;;;;17.67;70.61;101240.53;1765594;81;20926;-85
2022/07/02 00:53:35;;;;;;;0.62;0.30;;;;;;;17.64;70.84;101241.91;1765838;80;20866;-85
2022/07/02 00:56:01;;;;;;;3.43;0.20;;;;;;;17.60;70.69;101245.55;1765870;81;20909;-85
2022/07/02 00:58:31;;;;;;;0.47;0.30;;;;;;;17.56;70.72;101255.70;1765272;81;24650;-84
2022/07/02 01:00:59;;;;;;;1.12;0.23;;;;;;;17.52;70.71;101254.11;1765396;81;20866;-84
2022/07/02 01:03:26;;;;;;;;;;;;;;;17.49;70.78;101258.98;1744580;81;20906;-85
2022/07/02 01:05:53;;;;;;;0.80;0.33;;;;;;;17.46;71.17;101273.92;1765744;81;20151;-85
2022/07/02 01:11:08;;;;;;;1.67;0.23;;;;;;;17.35;71.22;101265.59;1721321;81;20925;-84
2022/07/02 01:13:41;;;;;;;1.55;0.30;;;;;;;17.29;70.99;101262.72;1765751;81;20890;-84
2022/07/02 01:16:07;;;;;;;1.03;0.33;;;;;;;17.27;70.88;101271.52;1739211;81;20922;-84
2022/07/02 01:18:36;;;;;;;1.85;0.40;;;;;;;17.23;70.73;101267.30;1735725;81;20938;-84
2022/07/02 01:21:04;;;;;;;0.30;0.30;;;;;;;17.20;70.75;101256.04;1735397;81;21398;-84
2022/07/02 01:23:30;;;;;;;1.37;0.42;;;;;;;17.20;70.81;101265.19;1763407;81;20956;-83
2022/07/02 01:25:57;;;;;;;0.87;0.33;;;;;;;17.20;70.79;101256.49;1766072;81;20898;-84
2022/07/02 01:28:29;;;;;;;0.82;0.40;;;;;;;17.14;70.75;101254.97;1744259;81;20882;-84
2022/07/02 01:30:55;;;;;;;2.40;0.60;;;;;;;17.09;70.78;101255.56;1735730;82;20930;-85
2022/07/02 01:33:21;;;;;;;1.47;0.40;;;;;;;17.09;70.82;101253.41;1761778;81;20918;-84
2022/07/02 01:35:50;;;;;;;3.22;0.50;;;;;;;17.08;70.90;101255.62;1737752;81;20975;-84
2022/07/02 01:38:16;;;;;;;0.67;0.43;;;;;;;17.02;71.03;101248.83;1764922;81;22020;-84
2022/07/02 01:40:42;;;;;;;0.57;0.30;;;;;;;17.00;71.09;101275.91;1735754;81;21118;-84
2022/07/02 01:43:09;;;;;;;0.30;0.30;;;;;;;16.95;71.01;101290.43;1738709;81;20996;-84
2022/07/02 01:45:35;;;;;;;0.87;0.60;;;;;;;16.95;71.04;101306.55;1763613;81;20976;-84
2022/07/02 01:48:01;;;;;;;0.67;0.30;;;;;;;16.94;71.14;101309.62;1763507;80;21020;-84
2022/07/02 01:50:26;;;;;;;1.25;0.47;;;;;;;16.98;71.05;101310.38;1766356;80;21095;-84
2022/07/02 01:52:56;;;;;;;0.60;0.33;;;;;;;16.98;71.04;101313.84;1780200;80;20881;-84
2022/07/02 01:55:20;;;;;;;2.40;0.50;;;;;;;17.03;71.12;101320.23;1779936;79;21048;-84
2022/07/02 01:57:46;;;;;;;1.67;0.30;;;;;;;17.05;71.11;101317.98;1779431;80;21657;-84
2022/07/02 02:00:13;;;;;;;1.23;0.43;;;;;;;17.07;71.14;101319.23;1780391;79;21107;-84
2022/07/02 02:02:40;;;;;;;3.72;0.70;;;;;;;17.05;71.11;101327.58;1780179;80;21036;-84
2022/07/02 02:05:07;;;;;;;1.85;0.40;;;;;;;17.04;71.15;101331.09;1780448;80;21048;-84
2022/07/02 02:07:33;;;;;;;1.15;0.45;;;;;;;17.04;71.14;101336.31;1779753;80;21075;-84
2022/07/02 02:10:01;;;;;;;2.00;0.50;;;;;;;17.06;71.23;101352.80;1780069;80;21396;-84
2022/07/02 02:12:27;;;;;;;0.60;0.20;;;;;;;17.04;71.17;101350.69;1766832;79;21095;-84
2022/07/02 02:14:53;;;;;;;1.03;0.30;;;;;;;16.98;71.25;101351.73;1765450;80;21094;-85
2022/07/02 02:17:20;;;;;;;1.12;0.40;;;;;;;16.96;71.33;101361.82;1780063;79;21403;-84
2022/07/02 02:19:46;;;;;;;1.17;0.50;;;;;;;16.92;71.29;101361.06;1780253;80;21044;-84
2022/07/02 02:22:19;;;;;;;0.53;0.53;;;;;;;16.87;71.46;101360.34;1779729;80;21386;-84
2022/07/02 02:24:45;;;;;;;1.50;0.53;;;;;;;16.85;71.40;101363.45;1755760;80;21401;-84
2022/07/02 02:27:11;;;;;;;1.73;0.30;;;;;;;16.84;71.55;101366.96;1772957;79;117014;-84
2022/07/02 02:29:38;;;;;;;0.47;0.30;;;;;;;16.85;71.64;101377.37;1697819;82;21272;-84
2022/07/02 02:32:05;;;;;;;3.53;0.40;;;;;;;16.86;71.55;101379.53;1687142;82;21411;-84
2022/07/02 02:34:31;;;;;;;1.12;0.30;;;;;;;16.84;71.52;101384.80;1727061;82;21083;-84
2022/07/02 02:36:57;;;;;;;0.57;0.30;;;;;;;16.85;71.59;101385.66;1704900;84;21059;-84
2022/07/02 02:39:23;;;;;;;0.97;0.33;;;;;;;16.85;71.64;101391.73;1708522;82;21357;-84
2022/07/02 02:41:49;;;;;;;2.03;0.33;;;;;;;16.88;71.69;101387.73;1717109;82;21363;-84
2022/07/02 02:44:15;;;;;;;0.40;0.40;;;;;;;16.89;71.64;101391.19;1704997;82;21814;-84
2022/07/02 02:46:41;;;;;;;0.20;0.20;;;;;;;16.90;71.73;101390.30;1734287;82;21402;-84
2022/07/02 02:49:07;;;;;;;2.57;0.20;;;;;;;16.90;71.68;101394.66;1733971;82;21315;-84
2022/07/02 02:51:33;;;;;;;1.33;0.40;;;;;;;16.91;71.75;101398.98;1727448;82;21150;-85
2022/07/02 02:54:00;;;;;;;4.33;0.40;;;;;;;16.93;71.73;101399.34;1701586;84;21314;-84
2022/07/02 02:56:26;;;;;;;0.87;0.60;;;;;;;16.96;71.81;101398.40;1702106;84;22515;-84
2022/07/02 02:58:52;;;;;;;1.07;0.30;;;;;;;16.98;71.79;101406.59;1723802;82;21409;-85
2022/07/02 03:01:18;;;;;;;0.40;0.40;;;;;;;16.98;71.81;101407.05;1704350;82;21350;-85
2022/07/02 03:03:44;;;;;;;1.30;0.33;;;;;;;16.99;71.82;101408.31;1714055;82;21343;-84
2022/07/02 03:06:10;;;;;;;0.30;0.20;;;;;;;17.01;71.84;101405.20;1731487;82;21019;-84
2022/07/02 03:08:37;;;;;;;2.42;0.47;;;;;;;17.02;71.83;101400.38;1728934;82;21123;-84
2022/07/02 03:11:03;;;;;;;3.50;0.63;;;;;;;17.01;71.86;101404.34;1695175;82;22578;-84
2022/07/02 03:13:29;;;;;;;1.90;0.60;;;;;;;17.01;71.95;101406.51;1726891;82;21111;-84
2022/07/02 03:15:57;;;;;;;2.92;0.75;;;;;;;16.95;71.89;101409.30;1731093;82;21406;-84
2022/07/02 03:18:23;;;;;;;0.80;0.53;;;;;;;16.96;71.94;101413.63;1731030;82;21736;-85
2022/07/02 03:20:49;;;;;;;4.90;1.03;;;;;;;16.96;71.99;101414.94;1669317;82;5001159;-84
2022/07/02 03:23:18;;;;;;;0.75;0.75;;;;;;;16.97;72.02;101423.17;1734337;81;21104;-84
2022/07/02 03:25:44;;;;;;;0.80;0.80;;;;;;;16.96;72.00;101438.90;1726918;82;20916;-84
2022/07/02 03:28:10;;;;;;;3.03;0.90;;;;;;;16.96;72.08;101442.36;1689286;82;21305;-84
2022/07/02 03:30:39;;;;;;;1.45;0.90;;;;;;;16.96;72.02;101446.73;1701565;82;21285;-84
2022/07/02 03:33:05;;;;;;;1.47;0.70;;;;;;;16.95;72.04;101450.25;1705563;83;21416;-84
2022/07/02 03:35:31;;;;;;;0.70;0.70;;;;;;;16.90;72.06;101443.84;1691031;82;21075;-84
2022/07/02 03:37:57;;;;;;;0.70;0.70;;;;;;;16.91;72.13;101444.25;1698556;82;21099;-84
2022/07/02 03:40:23;;;;;;;1.53;0.70;;;;;;;16.92;72.15;101447.27;1703187;84;21567;-84
2022/07/02 03:42:50;;;;;;;1.35;0.90;;;;;;;16.90;72.14;101450.37;1703182;83;21079;-84
2022/07/02 03:45:19;;;;;;;0.75;0.70;;;;;;;16.92;72.11;101450.33;1679716;82;21359;-84
2022/07/02 03:47:46;;;;;;;1.50;0.90;;;;;;;16.92;72.15;101453.80;1695662;82;21059;-84
2022/07/02 03:50:12;;;;;;;2.05;0.70;;;;;;;16.91;72.18;101456.46;1676927;82;21071;-84
2022/07/02 03:52:39;;;;;;;2.40;0.80;;;;;;;16.92;72.22;101458.17;1669062;85;21205;-84
2022/07/02 03:55:09;;;;;;;1.20;1.10;;;;;;;16.91;72.17;101457.77;1684623;84;21040;-84
2022/07/02 03:57:41;;;;;;;2.87;1.10;;;;;;;16.90;72.20;101456.91;1666311;84;21047;-84
2022/07/02 04:00:09;;;;;;;3.77;0.90;;;;;;;16.91;72.21;101462.99;1669653;83;21580;-84
2022/07/02 04:02:35;;;;;;;1.95;1.00;;;;;;;16.89;72.24;101464.34;1669224;83;21373;-84
2022/07/02 04:05:02;;;;;;;;;;;;;;;16.91;72.23;101472.99;1719402;83;21047;-84
2022/07/02 04:07:28;;;;;;;3.00;1.20;;;;;;;16.91;72.59;101470.83;1696750;84;20168;-85
2022/07/02 04:09:54;;;;;;;1.37;1.13;;;;;;;16.89;72.25;101474.79;1697031;83;20909;-84
2022/07/02 04:12:20;;;;;;;1.37;1.20;;;;;;;16.87;72.27;101479.20;1712850;83;20991;-84
2022/07/02 04:14:46;;;;;;;1.30;0.88;;;;;;;16.88;72.29;101487.45;1726281;82;21099;-84
2022/07/02 04:17:18;;;;;;;4.30;1.92;;;;;;;16.92;72.26;101492.14;1725720;82;21079;-85
2022/07/02 04:19:44;;;;;;;3.67;1.20;;;;;;;16.90;72.26;101499.16;1725256;83;21076;-85
2022/07/02 04:22:10;;;;;;;2.10;1.05;;;;;;;16.88;72.30;101501.36;1714877;82;21142;-84
2022/07/02 04:24:36;;;;;;;2.72;1.30;;;;;;;16.90;72.31;101503.08;1697066;83;21056;-84
2022/07/02 04:27:03;;;;;;;1.57;1.10;;;;;;;16.89;72.30;101508.75;1683559;83;20984;-84
2022/07/02 04:29:29;;;;;;;3.72;1.17;;;;;;;16.86;72.28;101515.37;1691788;84;21687;-84
2022/07/02 04:32:01;;;;;;;1.95;1.37;;;;;;;16.85;72.37;101511.90;1692324;84;21028;-84
2022/07/02 04:34:27;;;;;;;1.80;1.17;;;;;;;16.87;72.36;101513.16;1681835;83;21108;-85
2022/07/02 04:36:53;;;;;;;2.17;1.27;;;;;;;16.84;72.32;101517.16;1684144;84;21039;-84
2022/07/02 04:39:26;;;;;;;2.98;1.37;;;;;;;16.84;72.39;101519.78;1695169;84;21040;-84
2022/07/02 04:41:52;;;;;;;6.60;1.22;;;;;;;16.84;72.46;101523.25;1683641;84;21047;-84
2022/07/02 04:44:18;;;;;;;3.17;1.40;;;;;;;16.86;72.39;101518.84;1695101;83;21035;-84
2022/07/02 04:46:44;;;;;;;5.03;1.33;;;;;;;16.85;72.38;101521.48;1696824;83;21087;-84
2022/07/02 04:49:10;;;;;;;3.33;1.73;;;;;;;16.85;72.36;101526.72;1709805;83;21688;-84
2022/07/02 04:51:36;;;;;;;2.72;1.30;;;;;;;16.85;72.44;101525.41;1700291;83;21019;-84
2022/07/02 04:54:03;;;;;;;4.57;1.37;;;;;;;16.85;72.40;101529.33;1706365;82;21099;-84
2022/07/02 04:56:29;;;;;;;4.37;1.40;;;;;;;16.86;72.44;101535.81;1689699;82;21039;-85
2022/07/02 04:58:58;;;;;;;2.85;1.50;;;;;;;16.87;72.46;101537.53;1698880;83;21095;-85
2022/07/02 05:01:29;;;;;;;1.57;1.47;;;;;;;16.89;72.49;101540.10;1699109;83;21091;-85
2022/07/02 05:03:55;;;;;;;3.47;1.75;;;;;;;16.90;72.43;101546.19;1697729;82;26933;-85
2022/07/02 05:06:23;;;;;;;2.08;1.70;;;;;;;16.89;72.43;101550.55;1698872;82;21054;-85
2022/07/02 05:08:51;;;;;;;3.87;1.80;;;;;;;16.92;72.50;101549.61;1701171;84;20957;-85
2022/07/02 05:11:19;;;;;;;2.17;1.57;;;;;;;16.93;72.39;101552.63;1701122;83;20920;-85
2022/07/02 05:13:46;;;;;;;2.87;1.70;;;;;;;16.96;72.50;101553.41;1700770;82;20925;-85
2022/07/02 05:16:12;;;;;;;2.58;1.80;;;;;;;17.03;72.53;101563.24;1701398;84;20964;-85
2022/07/02 05:18:42;;;;;;;3.50;1.60;;;;;;;17.13;72.59;101573.40;1722803;82;20834;-85
2022/07/02 05:21:14;;;;;;;4.30;1.67;;;;;;;17.23;72.49;101571.36;1718723;81;21307;-85
2022/07/02 05:23:40;;;;;;;2.33;1.45;;;;;;;17.34;72.50;101570.60;1695356;82;20992;-84
2022/07/02 05:26:07;;;;;;;5.30;1.62;;;;;;;17.45;72.48;101572.91;1681318;82;21066;-85
2022/07/02 05:28:34;;;;;;;4.45;1.40;;;;;;;17.56;72.50;101571.29;1646706;85;21111;-84
2022/07/02 05:31:00;;;;;;;3.00;1.20;;;;;;;17.69;72.50;101585.72;1679479;84;21135;-85
2022/07/02 05:33:26;;;;;;;1.52;1.20;;;;;;;17.85;72.45;101586.97;1685247;84;21018;-85
2022/07/02 05:35:54;;;;;;;2.10;1.20;;;;;;;18.01;72.41;101587.36;1672550;84;21152;-85
2022/07/02 05:38:21;;;;;;;3.95;1.30;;;;;;;18.14;72.28;101587.38;1699605;84;21793;-85
2022/07/02 05:40:47;;;;;;;2.17;1.10;;;;;;;18.24;72.20;101587.45;1697116;82;21083;-85
2022/07/02 05:43:13;;;;;;;5.13;1.43;;;;;;;18.31;72.15;101575.88;1698929;82;21102;-85
2022/07/02 05:45:39;;;;;;;2.05;0.95;;;;;;;18.39;72.08;101580.88;1705950;82;21075;-85
2022/07/02 05:48:05;;;;;;;7.47;1.03;;;;;;;18.50;72.06;101585.30;1703813;81;21039;-85
2022/07/02 05:50:32;;;;;;;3.87;1.00;;;;;;;18.65;71.98;101589.20;1694335;82;21107;-85
2022/07/02 05:52:58;;;;;;;3.90;0.90;;;;;;;18.65;71.52;101570.41;1712959;81;21051;-85
2022/07/02 05:55:24;;;;;;;2.93;1.17;;;;;;;18.65;71.52;101570.41;1701226;84;21548;-85
2022/07/02 05:57:50;;;;;;;3.12;1.20;;;;;;;18.98;71.85;101585.84;1697886;82;21048;-85
2022/07/02 06:00:16;;;;;;;2.73;0.97;;;;;;;19.30;71.95;101592.53;1695210;82;21035;-85
2022/07/02 06:02:42;;;;;;;2.83;1.02;;;;;;;19.79;71.70;101592.86;1710647;81;21639;-85
2022/07/02 06:07:54;;;;;;;2.40;0.97;;;;;;;20.20;71.19;101594.32;1720905;82;21059;-85
2022/07/02 06:10:21;;;;;;;4.17;0.90;;;;;;;20.66;71.23;101591.97;1702366;82;21071;-85
2022/07/02 06:12:49;;;;;;;1.72;1.20;;;;;;;21.14;71.25;101599.48;1701866;82;21094;-85
2022/07/02 06:15:18;;;;;;;3.55;1.20;;;;;;;21.50;70.77;101595.67;1691150;82;21094;-85
2022/07/02 06:17:45;;;;;;;3.02;1.10;;;;;;;21.54;69.99;101601.65;1698916;84;20924;-84
2022/07/02 06:20:14;;;;;;;1.77;0.90;;;;;;;21.75;70.29;101616.45;1703134;84;20873;-84
2022/07/02 06:22:43;;;;;;;6.40;1.60;;;;;;;22.15;69.85;101621.16;1702760;84;20910;-84
2022/07/02 06:25:09;;;;;;;1.30;0.90;;;;;;;22.11;69.65;101619.98;1699308;82;21560;-85
2022/07/02 06:27:36;;;;;;;3.22;1.25;;;;;;;22.00;68.96;101626.20;1664468;84;20978;-85
2022/07/02 06:30:05;;;;;;;2.50;1.32;;;;;;;21.67;69.17;101620.76;1706074;82;20909;-85
2022/07/02 06:32:31;;;;;;;2.50;0.98;;;;;;;21.54;69.34;101620.92;1695793;84;20941;-85
2022/07/02 06:34:59;;;;;;;3.33;1.22;;;;;;;21.60;69.18;101632.95;1700644;84;20876;-85
2022/07/02 06:37:26;;;;;;;1.47;1.00;;;;;;;21.93;69.41;101627.88;1704848;82;20963;-85
2022/07/02 06:39:52;;;;;;;2.25;1.10;;;;;;;22.42;68.92;101626.37;1703356;84;20932;-84
2022/07/02 06:42:18;;;;;;;3.35;1.20;;;;;;;22.81;68.54;101621.39;1686258;84;20906;-84
2022/07/02 06:44:46;;;;;;;2.22;1.10;;;;;;;23.11;68.35;101629.87;1700380;82;20948;-84
2022/07/02 06:47:16;;;;;;;1.75;0.75;;;;;;;23.42;68.37;101625.59;1698663;82;20921;-84
2022/07/02 06:49:44;;;;;;;2.62;0.90;;;;;;;24.01;68.32;101623.65;1705494;82;20930;-84
2022/07/02 06:52:11;;;;;;;7.20;0.88;;;;;;;24.27;67.48;101626.64;1684993;84;20901;-84
2022/07/02 06:54:38;;;;;;;1.95;0.90;;;;;;;24.47;67.02;101634.72;1710344;83;21040;-84
2022/07/02 06:57:06;;;;;;;1.80;0.82;;;;;;;24.62;67.11;101641.30;1698375;83;20987;-84
2022/07/02 06:59:32;;;;;;;5.87;0.90;;;;;;;24.76;66.05;101643.14;1683970;83;21040;-84
2022/07/02 07:01:58;;;;;;;1.35;0.85;;;;;;;24.86;66.28;101645.62;1693285;83;21080;-84
2022/07/02 07:04:27;;;;;;;2.25;0.80;;;;;;;24.97;65.73;101642.34;1692421;83;21052;-85
2022/07/02 07:06:55;;;;;;;1.70;0.90;;;;;;;24.97;65.36;101639.69;1669493;84;21069;-85
2022/07/02 07:09:23;;;;;;;2.42;0.80;;;;;;;24.98;65.36;101643.57;1693377;84;21095;-88
2022/07/02 07:11:50;;;;;;;1.40;1.00;;;;;;;25.29;65.33;101647.02;1692648;83;21031;-84
2022/07/02 07:14:16;;;;;;;2.22;1.17;;;;;;;25.47;64.87;101653.83;1696263;83;21075;-84
2022/07/02 07:16:43;;;;;;;2.62;0.98;;;;;;;25.84;64.69;101656.83;1699933;83;20976;-85
2022/07/02 07:19:10;;;;;;;0.85;0.75;;;;;;;25.93;64.38;101657.58;1704882;82;20980;-82
2022/07/02 07:21:39;;;;;;;2.47;1.35;;;;;;;26.03;63.61;101661.31;1698782;82;21032;-82
2022/07/02 07:24:07;;;;;;;5.20;0.75;;;;;;;25.68;63.33;101663.09;1664296;84;20988;-82
2022/07/02 07:26:35;;;;;;;2.67;1.02;;;;;;;25.73;62.86;101665.45;1694411;84;21051;-80
2022/07/02 07:29:01;;;;;;;1.45;0.70;;;;;;;25.55;62.47;101669.22;1701926;83;21047;-82
2022/07/02 07:31:28;;;;;;;2.02;0.95;;;;;;;25.49;62.53;101673.09;1701855;82;21056;-86
2022/07/02 07:33:58;;;;;;;4.72;0.85;;;;;;;25.31;62.30;101679.08;1695735;83;21103;-82
2022/07/02 07:36:30;;;;;;;2.12;0.80;;;;;;;25.21;61.88;101685.87;1697565;83;20987;-84
2022/07/02 07:38:54;;;;;;;3.22;0.62;;;;;;;24.99;61.65;101688.09;1697876;84;20885;-81
2022/07/02 07:41:23;;;;;;;2.10;0.70;;;;;;;24.65;61.54;101698.45;1698236;83;21938;-83
2022/07/02 07:43:51;;;;;;;2.20;0.95;;;;;;;24.74;61.63;101698.78;1698549;83;20952;-84
2022/07/02 07:46:17;;;;;;;2.50;0.85;;;;;;;25.08;61.30;101702.10;1696258;83;21404;-83
2022/07/02 07:48:45;;;;;;;2.35;0.65;;;;;;;25.37;60.67;101699.88;1700117;83;21341;-84
2022/07/02 07:51:12;;;;;;;4.03;0.68;;;;;;;25.26;60.36;101706.77;1702934;83;20877;-84
2022/07/02 07:53:38;;;;;;;4.12;0.70;;;;;;;25.43;60.18;101701.31;1703809;83;20940;-84
2022/07/02 07:56:05;;;;;;;3.02;0.98;;;;;;;25.54;59.59;101701.47;1700091;82;21470;-84
2022/07/02 07:58:33;;;;;;;2.52;0.90;;;;;;;25.38;59.46;101710.00;1704202;82;21349;-84
2022/07/02 08:00:59;;;;;;;3.15;0.93;;;;;;;25.11;59.34;101713.83;1720284;82;20865;-82
2022/07/02 08:03:31;;;;;;;3.05;0.95;;;;;;;25.24;59.44;101719.25;1696504;82;21373;-83
2022/07/02 08:05:58;;;;;;;5.40;0.70;;;;;;;25.39;58.98;101714.36;1702330;84;21362;-82
2022/07/02 08:08:24;;;;;;;1.40;0.78;;;;;;;25.82;57.84;101728.95;1707262;82;20905;-82
2022/07/02 08:10:50;;;;;;;1.90;0.70;;;;;;;25.82;57.84;101728.95;1691529;84;21453;-81
2022/07/02 08:13:18;;;;;;;1.95;0.85;;;;;;;26.25;58.20;101729.25;1690491;83;20936;-83
2022/07/02 08:15:44;;;;;;;1.67;1.00;;;;;;;26.47;56.69;101726.09;1699805;83;21403;-82
2022/07/02 08:18:11;;;;;;;;;;;;;;;26.79;57.36;101725.28;1695140;83;21402;-82
2022/07/02 08:20:37;;;;;;;2.05;0.70;;;;;;;27.29;56.59;101725.86;1695103;83;20214;-81
2022/07/02 08:23:15;;;;;;;3.08;0.90;;;;;;;27.49;57.36;101736.92;1700588;84;21417;-84
2022/07/02 08:25:42;;;;;;;2.50;0.93;;;;;;;27.69;56.89;101743.89;1692916;82;21498;-79
2022/07/02 08:28:08;;;;;;;3.25;0.70;;;;;;;27.79;56.63;101738.78;1699990;82;21838;-80
2022/07/02 08:30:34;;;;;;;4.15;0.90;;;;;;;27.98;56.10;101739.66;1702029;84;21402;-84
2022/07/02 08:33:00;;;;;;;3.77;1.00;;;;;;;27.37;55.75;101716.05;1699241;83;21811;-81
2022/07/02 08:35:27;;;;;;;2.80;1.00;;;;;;;27.00;55.94;101753.09;1702225;82;21475;-81
2022/07/02 08:37:53;;;;;;;3.08;0.72;;;;;;;27.08;55.80;101741.92;1681573;82;20949;-84
2022/07/02 08:40:27;;;;;;;2.98;0.78;;;;;;;27.03;54.72;101734.27;1682673;82;21447;-82
2022/07/02 08:42:59;;;;;;;3.35;1.05;;;;;;;26.98;54.84;101737.73;1692351;82;21381;-82
2022/07/02 08:45:31;;;;;;;2.37;1.10;;;;;;;26.96;54.36;101742.78;1693166;82;20920;-82
2022/07/02 08:48:04;;;;;;;1.12;0.80;;;;;;;27.11;54.36;101747.03;1702108;82;21555;-80
2022/07/02 08:50:31;;;;;;;4.60;1.10;;;;;;;27.13;53.56;101746.92;1702907;83;21666;-80
2022/07/02 08:52:57;;;;;;;7.10;1.00;;;;;;;27.11;53.44;101745.70;1713710;83;20925;-82
2022/07/02 08:55:23;;;;;;;2.02;1.15;;;;;;;26.85;52.88;101741.28;1717574;83;22094;-82
2022/07/02 08:57:51;;;;;;;2.15;1.37;;;;;;;26.74;53.19;101753.93;1732918;82;21500;-82
2022/07/02 09:00:20;;;;;;;4.53;1.02;;;;;;;26.79;52.90;101750.97;1719011;81;21339;-82
2022/07/02 09:02:50;;;;;;;1.25;0.90;;;;;;;26.83;52.83;101745.84;1716350;83;21414;-82
2022/07/02 09:05:18;;;;;;;3.12;1.40;;;;;;;26.74;52.18;101751.75;1721140;82;21327;-81
2022/07/02 09:07:46;;;;;;;5.53;1.10;;;;;;;26.49;52.01;101755.18;1731065;82;21437;-81
2022/07/02 09:10:12;;;;;;;3.17;0.90;;;;;;;26.43;52.16;101747.62;1734960;81;20934;-82
2022/07/02 09:12:40;;;;;;;3.25;1.10;;;;;;;26.35;51.97;101758.72;1709371;81;21402;-82
2022/07/02 09:15:07;;;;;;;3.37;1.30;;;;;;;26.14;50.99;101758.24;1726276;82;20909;-82
2022/07/02 09:17:33;;;;;;;5.85;1.30;;;;;;;25.92;51.51;101751.28;1726256;81;22284;-82
2022/07/02 09:20:01;;;;;;;2.42;1.10;;;;;;;25.76;51.06;101754.50;1724242;82;21474;-82
2022/07/02 09:22:40;;;;;;;2.90;1.07;;;;;;;25.58;50.84;101761.73;1717699;83;21363;-82
2022/07/02 09:25:15;;;;;;;3.50;1.05;;;;;;;25.12;50.85;101763.18;1728873;82;21414;-82
2022/07/02 09:27:45;;;;;;;2.37;0.88;;;;;;;24.94;51.17;101763.77;1719935;82;20914;-82
2022/07/02 09:30:18;;;;;;;2.70;1.07;;;;;;;24.98;50.88;101756.52;1704670;82;20898;-82
2022/07/02 09:32:46;;;;;;;2.87;1.22;;;;;;;24.89;50.52;101754.40;1732780;82;21340;-82
2022/07/02 09:35:18;;;;;;;2.87;1.35;;;;;;;24.61;50.26;101761.26;1718048;83;20992;-82
2022/07/02 09:37:44;;;;;;;6.67;1.27;;;;;;;24.42;50.43;101763.26;1718054;83;21366;-82
2022/07/02 09:40:11;;;;;;;2.85;1.25;;;;;;;24.40;50.37;101758.05;1733358;82;20890;-83
2022/07/02 09:42:37;;;;;;;2.70;1.25;;;;;;;24.26;49.98;101747.86;1713626;83;20910;-83
2022/07/02 09:45:08;;;;;;;6.80;1.05;;;;;;;24.09;49.92;101760.17;1672191;84;20894;-83
2022/07/02 09:47:38;;;;;;;10.48;1.27;;;;;;;23.87;49.90;101766.25;1703547;83;20930;-82
2022/07/02 09:50:12;;;;;;;6.62;1.05;;;;;;;23.70;50.07;101763.17;1722159;82;20906;-84
2022/07/02 09:52:52;;;;;;;1.90;0.90;;;;;;;23.64;49.96;101759.53;1722296;81;20918;-83
2022/07/02 09:55:21;;;;;;;2.10;0.88;;;;;;;23.64;50.02;101764.81;1712633;81;20923;-83
2022/07/02 09:57:56;;;;;;;6.05;1.10;;;;;;;23.75;50.06;101759.83;1715988;81;20917;-83
2022/07/02 10:00:24;;;;;;;4.90;0.90;;;;;;;23.89;49.89;101758.24;1719502;82;20910;-83
2022/07/02 10:02:53;;;;;;;3.65;0.88;;;;;;;23.65;48.91;101761.24;1687928;83;20931;-83
2022/07/02 10:05:33;;;;;;;1.72;1.00;;;;;;;23.37;49.63;101762.28;1724325;81;20938;-83
2022/07/02 10:08:03;;;;;;;3.87;1.10;;;;;;;23.42;49.66;101770.78;1721737;83;21292;-83
2022/07/02 10:10:41;;;;;;;3.83;1.00;;;;;;;23.55;49.76;101760.02;1719865;81;20890;-83
2022/07/02 10:13:16;;;;;;;2.30;1.12;;;;;;;23.69;49.68;101756.66;1716696;81;20929;-82
2022/07/02 10:15:53;;;;;;;3.27;1.17;;;;;;;23.72;48.94;101761.78;1722168;82;20866;-83
2022/07/02 10:18:22;;;;;;;4.12;0.90;;;;;;;23.58;49.37;101757.68;1725181;81;20898;-83
2022/07/02 10:20:49;;;;;;;2.15;0.98;;;;;;;23.71;49.48;101760.92;1746745;81;20927;-83
2022/07/02 10:23:15;;;;;;;3.25;1.17;;;;;;;23.89;49.49;101767.48;1699201;83;20906;-83
2022/07/02 10:25:43;;;;;;;1.90;0.78;;;;;;;23.94;49.21;101762.78;1709518;81;21387;-83
2022/07/02 10:28:09;;;;;;;3.15;1.00;;;;;;;24.05;49.40;101753.81;1707673;81;20972;-82
2022/07/02 10:30:36;;;;;;;2.75;0.82;;;;;;;24.16;49.17;101761.16;1721367;82;20891;-82
2022/07/02 10:33:40;;;;;;;2.65;1.00;;;;;;;24.16;49.27;101765.98;1725750;81;21407;-83
2022/07/02 10:36:13;;;;;;;4.00;1.20;;;;;;;24.08;49.11;101760.25;1698644;81;20916;-83
2022/07/02 10:38:40;;;;;;;3.22;1.30;;;;;;;24.04;48.92;101773.25;1715636;81;20930;-83
2022/07/02 10:41:10;;;;;;;5.00;1.27;;;;;;;23.91;49.00;101772.23;1735515;81;21261;-83
2022/07/02 10:43:39;;;;;;;4.08;1.00;;;;;;;23.92;48.95;101765.97;1668269;84;20914;-83
2022/07/02 10:46:08;;;;;;;3.22;0.90;;;;;;;23.97;48.81;101763.47;1709568;83;20949;-83
2022/07/02 10:48:39;;;;;;;2.77;1.00;;;;;;;23.90;48.79;101761.27;1718793;81;20966;-83
2022/07/02 10:51:07;;;;;;;3.52;1.00;;;;;;;23.80;48.80;101760.91;1710556;81;20953;-83
2022/07/02 10:53:34;;;;;;;1.98;0.93;;;;;;;23.70;48.52;101755.72;1644558;85;20930;-83
2022/07/02 10:56:04;;;;;;;1.65;0.75;;;;;;;23.55;48.65;101757.84;1693793;83;20942;-83
2022/07/02 10:58:37;;;;;;;3.30;1.00;;;;;;;23.42;48.50;101754.48;1692642;82;20953;-83
2022/07/02 11:01:15;;;;;;;4.78;1.30;;;;;;;23.25;48.58;101751.87;1700135;82;21083;-83
2022/07/02 11:03:59;;;;;;;3.10;1.50;;;;;;;23.29;48.79;101749.47;1700426;82;21334;-83
2022/07/02 11:06:32;;;;;;;2.33;0.95;;;;;;;23.38;48.80;101748.14;1692135;82;21063;-83
2022/07/02 11:09:06;;;;;;;2.70;1.12;;;;;;;23.43;48.59;101740.81;1690325;82;21362;-83
2022/07/02 11:11:39;;;;;;;1.22;0.82;;;;;;;23.44;48.45;101737.23;1682178;82;21044;-82
2022/07/02 11:14:17;;;;;;;2.42;1.20;;;;;;;23.43;48.49;101732.89;1696287;84;20968;-83
2022/07/02 11:16:53;;;;;;;2.77;0.80;;;;;;;23.55;48.64;101729.65;1699003;84;21024;-83
2022/07/02 11:19:27;;;;;;;2.15;1.20;;;;;;;23.75;48.66;101731.23;1699152;82;20865;-83
2022/07/02 11:21:59;;;;;;;2.15;1.20;;;;;;;23.86;48.63;101718.78;1697782;82;20865;-83
2022/07/02 11:24:29;;;;;;;10.75;1.35;;;;;;;23.87;48.18;101729.27;1697574;84;20897;-83
2022/07/02 11:26:58;;;;;;;3.15;1.25;;;;;;;23.77;48.38;101720.12;1687844;82;20933;-83
2022/07/02 11:29:25;;;;;;;1.98;1.12;;;;;;;23.77;48.48;101717.48;1694723;82;20932;-83
2022/07/02 11:31:55;;;;;;;3.15;1.20;;;;;;;23.79;48.27;101712.97;1708076;82;21333;-83
2022/07/02 11:34:24;;;;;;;3.08;1.00;;;;;;;23.81;48.36;101710.25;1704885;82;21393;-83
2022/07/02 11:36:54;;;;;;;2.40;0.80;;;;;;;23.84;48.43;101714.05;1705164;82;20873;-83